sensor_id;sensor_type;location;lat;lon;timestamp;temperature;humidity
4425;DHT22;2225;53.568;13.266;2023-10-31T00:01:05;15.60;97.00
4425;DHT22;2225;53.568;13.266;2023-10-31T00:03:32;15.60;97.00
4425;DHT22;2225;53.568;13.266;2023-10-31T00:05:59;15.60;97.00
4425;DHT22;2225;53.568;13.266;2023-10-31T00:08:26;15.60;97.00
4425;DHT22;2225;53.568;13.266;2023-10-31T00:10:53;15.60;97.00
4425;DHT22;2225;53.568;13.266;2023-10-31T00:13:20;15.60;97.10
4425;DHT22;2225;53.568;13.266;2023-10-31T00:15:47;15.70;97.10
4425;DHT22;2225;53.568;13.266;2023-10-31T00:18:14;15.70;97.00
4425;DHT22;2225;53.568;13.266;2023-10-31T00:20:41;15.70;97.00
4425;DHT22;2225;53.568;13.266;2023-10-31T00:23:08;15.70;97.00
4425;DHT22;2225;53.568;13.266;2023-10-31T00:25:35;15.70;97.00
4425;DHT22;2225;53.568;13.266;2023-10-31T00:28:03;15.70;96.90
4425;DHT22;2225;53.568;13.266;2023-10-31T00:30:29;15.70;96.90
4425;DHT22;2225;53.568;13.266;2023-10-31T00:32:56;15.70;96.80
4425;DHT22;2225;53.568;13.266;2023-10-31T00:35:23;15.70;96.70
4425;DHT22;2225;53.568;13.266;2023-10-31T00:37:50;15.80;96.70
4425;DHT22;2225;53.568;13.266;2023-10-31T00:40:17;15.70;96.70
4425;DHT22;2225;53.568;13.266;2023-10-31T00:42:45;15.80;96.80
4425;DHT22;2225;53.568;13.266;2023-10-31T00:45:13;15.70;96.80
4425;DHT22;2225;53.568;13.266;2023-10-31T00:47:40;15.80;96.80
4425;DHT22;2225;53.568;13.266;2023-10-31T00:50:07;15.80;96.80
4425;DHT22;2225;53.568;13.266;2023-10-31T00:52:35;15.70;96.80
4425;DHT22;2225;53.568;13.266;2023-10-31T00:55:03;15.70;96.80
4425;DHT22;2225;53.568;13.266;2023-10-31T00:57:30;15.70;96.90
4425;DHT22;2225;53.568;13.266;2023-10-31T00:59:57;15.70;96.90
4425;DHT22;2225;53.568;13.266;2023-10-31T01:02:24;15.70;96.90
4425;DHT22;2225;53.568;13.266;2023-10-31T01:04:51;15.70;96.90
4425;DHT22;2225;53.568;13.266;2023-10-31T01:07:18;15.70;96.90
4425;DHT22;2225;53.568;13.266;2023-10-31T01:09:46;15.70;96.90
4425;DHT22;2225;53.568;13.266;2023-10-31T01:12:12;15.70;96.90
4425;DHT22;2225;53.568;13.266;2023-10-31T01:14:39;15.70;96.90
4425;DHT22;2225;53.568;13.266;2023-10-31T01:17:06;15.70;96.90
4425;DHT22;2225;53.568;13.266;2023-10-31T01:19:33;15.70;96.90
4425;DHT22;2225;53.568;13.266;2023-10-31T01:22:00;15.70;96.90
4425;DHT22;2225;53.568;13.266;2023-10-31T01:24:27;15.70;96.90
4425;DHT22;2225;53.568;13.266;2023-10-31T01:26:54;15.70;97.00
4425;DHT22;2225;53.568;13.266;2023-10-31T01:29:21;15.70;97.10
4425;DHT22;2225;53.568;13.266;2023-10-31T01:31:48;15.70;97.10
4425;DHT22;2225;53.568;13.266;2023-10-31T01:34:27;15.70;97.00
4425;DHT22;2225;53.568;13.266;2023-10-31T01:36:54;15.70;97.10
4425;DHT22;2225;53.568;13.266;2023-10-31T01:39:21;15.70;97.10
4425;DHT22;2225;53.568;13.266;2023-10-31T01:41:48;15.70;96.90
4425;DHT22;2225;53.568;13.266;2023-10-31T01:44:15;15.70;96.90
4425;DHT22;2225;53.568;13.266;2023-10-31T01:46:42;15.70;97.00
4425;DHT22;2225;53.568;13.266;2023-10-31T01:49:09;15.60;96.80
4425;DHT22;2225;53.568;13.266;2023-10-31T01:51:36;15.60;96.90
4425;DHT22;2225;53.568;13.266;2023-10-31T01:54:03;15.60;96.90
4425;DHT22;2225;53.568;13.266;2023-10-31T01:56:31;15.60;97.00
4425;DHT22;2225;53.568;13.266;2023-10-31T01:58:58;15.50;97.00
4425;DHT22;2225;53.568;13.266;2023-10-31T02:01:25;15.50;97.10
4425;DHT22;2225;53.568;13.266;2023-10-31T02:03:53;15.50;97.20
4425;DHT22;2225;53.568;13.266;2023-10-31T02:06:20;15.50;97.30
4425;DHT22;2225;53.568;13.266;2023-10-31T02:08:48;15.50;97.30
4425;DHT22;2225;53.568;13.266;2023-10-31T02:11:15;15.50;97.40
4425;DHT22;2225;53.568;13.266;2023-10-31T02:13:42;15.50;97.40
4425;DHT22;2225;53.568;13.266;2023-10-31T02:16:09;15.50;97.30
4425;DHT22;2225;53.568;13.266;2023-10-31T02:18:36;15.50;97.40
4425;DHT22;2225;53.568;13.266;2023-10-31T02:21:03;15.40;97.40
4425;DHT22;2225;53.568;13.266;2023-10-31T02:23:30;15.40;97.30
4425;DHT22;2225;53.568;13.266;2023-10-31T02:25:57;15.40;97.40
4425;DHT22;2225;53.568;13.266;2023-10-31T02:28:24;15.40;97.50
4425;DHT22;2225;53.568;13.266;2023-10-31T02:30:54;15.40;97.50
4425;DHT22;2225;53.568;13.266;2023-10-31T02:33:21;15.40;97.60
4425;DHT22;2225;53.568;13.266;2023-10-31T02:35:48;15.40;97.70
4425;DHT22;2225;53.568;13.266;2023-10-31T02:38:15;15.40;97.70
4425;DHT22;2225;53.568;13.266;2023-10-31T02:40:42;15.40;97.70
4425;DHT22;2225;53.568;13.266;2023-10-31T02:43:09;15.40;97.80
4425;DHT22;2225;53.568;13.266;2023-10-31T02:45:36;15.40;97.80
4425;DHT22;2225;53.568;13.266;2023-10-31T02:48:03;15.40;97.80
4425;DHT22;2225;53.568;13.266;2023-10-31T02:50:30;15.40;97.90
4425;DHT22;2225;53.568;13.266;2023-10-31T02:52:57;15.40;97.90
4425;DHT22;2225;53.568;13.266;2023-10-31T02:55:24;15.40;97.90
4425;DHT22;2225;53.568;13.266;2023-10-31T02:57:51;15.40;97.90
4425;DHT22;2225;53.568;13.266;2023-10-31T03:00:19;15.40;97.90
4425;DHT22;2225;53.568;13.266;2023-10-31T03:02:46;15.40;97.90
4425;DHT22;2225;53.568;13.266;2023-10-31T03:05:13;15.40;97.90
4425;DHT22;2225;53.568;13.266;2023-10-31T03:07:40;15.40;97.80
4425;DHT22;2225;53.568;13.266;2023-10-31T03:10:07;15.40;97.80
4425;DHT22;2225;53.568;13.266;2023-10-31T03:12:34;15.40;97.90
4425;DHT22;2225;53.568;13.266;2023-10-31T03:15:02;15.40;97.90
4425;DHT22;2225;53.568;13.266;2023-10-31T03:17:30;15.30;97.80
4425;DHT22;2225;53.568;13.266;2023-10-31T03:19:57;15.30;97.70
4425;DHT22;2225;53.568;13.266;2023-10-31T03:22:25;15.30;97.60
4425;DHT22;2225;53.568;13.266;2023-10-31T03:24:52;15.30;97.60
4425;DHT22;2225;53.568;13.266;2023-10-31T03:27:19;15.30;97.70
4425;DHT22;2225;53.568;13.266;2023-10-31T03:29:46;15.30;97.80
4425;DHT22;2225;53.568;13.266;2023-10-31T03:32:13;15.30;97.70
4425;DHT22;2225;53.568;13.266;2023-10-31T03:34:40;15.20;97.70
4425;DHT22;2225;53.568;13.266;2023-10-31T03:37:07;15.20;97.80
4425;DHT22;2225;53.568;13.266;2023-10-31T03:39:35;15.20;97.90
4425;DHT22;2225;53.568;13.266;2023-10-31T03:42:02;15.20;98.00
4425;DHT22;2225;53.568;13.266;2023-10-31T03:44:29;15.20;98.00
4425;DHT22;2225;53.568;13.266;2023-10-31T03:46:56;15.20;98.00
4425;DHT22;2225;53.568;13.266;2023-10-31T03:49:22;15.20;98.10
4425;DHT22;2225;53.568;13.266;2023-10-31T03:51:50;15.20;98.20
4425;DHT22;2225;53.568;13.266;2023-10-31T03:54:17;15.10;98.30
4425;DHT22;2225;53.568;13.266;2023-10-31T03:56:44;15.10;98.40
4425;DHT22;2225;53.568;13.266;2023-10-31T03:59:12;15.10;98.40
4425;DHT22;2225;53.568;13.266;2023-10-31T04:01:39;15.10;98.40
4425;DHT22;2225;53.568;13.266;2023-10-31T04:04:07;15.10;98.50
4425;DHT22;2225;53.568;13.266;2023-10-31T04:06:34;15.10;98.60
4425;DHT22;2225;53.568;13.266;2023-10-31T04:09:01;15.20;98.60
4425;DHT22;2225;53.568;13.266;2023-10-31T04:11:27;15.20;98.70
4425;DHT22;2225;53.568;13.266;2023-10-31T04:13:54;15.20;98.70
4425;DHT22;2225;53.568;13.266;2023-10-31T04:16:21;15.20;98.70
4425;DHT22;2225;53.568;13.266;2023-10-31T04:18:48;15.20;98.70
4425;DHT22;2225;53.568;13.266;2023-10-31T04:21:15;15.20;98.70
4425;DHT22;2225;53.568;13.266;2023-10-31T04:23:42;15.20;98.70
4425;DHT22;2225;53.568;13.266;2023-10-31T04:26:09;15.20;98.70
4425;DHT22;2225;53.568;13.266;2023-10-31T04:28:36;15.20;98.90
4425;DHT22;2225;53.568;13.266;2023-10-31T04:31:03;15.20;98.80
4425;DHT22;2225;53.568;13.266;2023-10-31T04:33:31;15.30;98.80
4425;DHT22;2225;53.568;13.266;2023-10-31T04:35:58;15.30;98.80
4425;DHT22;2225;53.568;13.266;2023-10-31T04:38:25;15.30;98.80
4425;DHT22;2225;53.568;13.266;2023-10-31T04:40:52;15.30;98.80
4425;DHT22;2225;53.568;13.266;2023-10-31T04:43:19;15.30;99.00
4425;DHT22;2225;53.568;13.266;2023-10-31T04:45:45;15.30;98.80
4425;DHT22;2225;53.568;13.266;2023-10-31T04:48:13;15.30;98.80
4425;DHT22;2225;53.568;13.266;2023-10-31T04:50:40;15.30;98.80
4425;DHT22;2225;53.568;13.266;2023-10-31T04:53:07;15.40;98.80
4425;DHT22;2225;53.568;13.266;2023-10-31T04:55:34;15.40;98.80
4425;DHT22;2225;53.568;13.266;2023-10-31T04:58:01;15.40;98.80
4425;DHT22;2225;53.568;13.266;2023-10-31T05:00:28;15.40;98.80
4425;DHT22;2225;53.568;13.266;2023-10-31T05:02:55;15.40;98.70
4425;DHT22;2225;53.568;13.266;2023-10-31T05:05:24;15.40;98.80
4425;DHT22;2225;53.568;13.266;2023-10-31T05:07:51;15.40;98.70
4425;DHT22;2225;53.568;13.266;2023-10-31T05:10:18;15.40;98.80
4425;DHT22;2225;53.568;13.266;2023-10-31T05:12:45;15.40;98.70
4425;DHT22;2225;53.568;13.266;2023-10-31T05:15:12;15.40;98.70
4425;DHT22;2225;53.568;13.266;2023-10-31T05:17:39;15.40;98.70
4425;DHT22;2225;53.568;13.266;2023-10-31T05:20:06;15.40;98.70
4425;DHT22;2225;53.568;13.266;2023-10-31T05:22:33;15.40;98.70
4425;DHT22;2225;53.568;13.266;2023-10-31T05:25:00;15.40;98.70
4425;DHT22;2225;53.568;13.266;2023-10-31T05:27:27;15.40;98.70
4425;DHT22;2225;53.568;13.266;2023-10-31T05:29:57;15.40;98.70
4425;DHT22;2225;53.568;13.266;2023-10-31T05:32:24;15.40;98.70
4425;DHT22;2225;53.568;13.266;2023-10-31T05:34:51;15.40;98.70
4425;DHT22;2225;53.568;13.266;2023-10-31T05:37:18;15.40;98.70
4425;DHT22;2225;53.568;13.266;2023-10-31T05:39:45;15.40;98.70
4425;DHT22;2225;53.568;13.266;2023-10-31T05:42:12;15.40;98.70
4425;DHT22;2225;53.568;13.266;2023-10-31T05:44:39;15.40;98.70
4425;DHT22;2225;53.568;13.266;2023-10-31T05:47:06;15.50;98.80
4425;DHT22;2225;53.568;13.266;2023-10-31T05:49:33;15.50;98.80
4425;DHT22;2225;53.568;13.266;2023-10-31T05:52:00;15.50;98.80
4425;DHT22;2225;53.568;13.266;2023-10-31T05:54:27;15.50;98.80
4425;DHT22;2225;53.568;13.266;2023-10-31T05:56:54;15.50;98.70
4425;DHT22;2225;53.568;13.266;2023-10-31T05:59:21;15.40;98.70
4425;DHT22;2225;53.568;13.266;2023-10-31T06:01:48;15.40;98.70
4425;DHT22;2225;53.568;13.266;2023-10-31T06:04:17;15.50;98.80
4425;DHT22;2225;53.568;13.266;2023-10-31T06:06:44;15.50;98.80
4425;DHT22;2225;53.568;13.266;2023-10-31T06:09:10;15.50;98.80
4425;DHT22;2225;53.568;13.266;2023-10-31T06:11:40;15.50;98.80
4425;DHT22;2225;53.568;13.266;2023-10-31T06:14:09;15.50;98.80
4425;DHT22;2225;53.568;13.266;2023-10-31T06:16:43;15.50;98.80
4425;DHT22;2225;53.568;13.266;2023-10-31T06:19:10;15.50;98.90
4425;DHT22;2225;53.568;13.266;2023-10-31T06:21:37;15.50;98.80
4425;DHT22;2225;53.568;13.266;2023-10-31T06:24:04;15.50;98.90
4425;DHT22;2225;53.568;13.266;2023-10-31T06:26:32;15.50;98.90
4425;DHT22;2225;53.568;13.266;2023-10-31T06:28:58;15.50;99.00
4425;DHT22;2225;53.568;13.266;2023-10-31T06:31:45;15.50;98.90
4425;DHT22;2225;53.568;13.266;2023-10-31T06:34:12;15.60;98.90
4425;DHT22;2225;53.568;13.266;2023-10-31T06:36:39;15.60;98.90
4425;DHT22;2225;53.568;13.266;2023-10-31T06:39:06;15.60;99.00
4425;DHT22;2225;53.568;13.266;2023-10-31T06:41:33;15.60;99.10
4425;DHT22;2225;53.568;13.266;2023-10-31T06:44:00;15.60;99.10
4425;DHT22;2225;53.568;13.266;2023-10-31T06:46:27;15.60;99.20
4425;DHT22;2225;53.568;13.266;2023-10-31T06:48:54;15.70;99.20
4425;DHT22;2225;53.568;13.266;2023-10-31T06:51:21;15.70;99.30
4425;DHT22;2225;53.568;13.266;2023-10-31T06:53:48;15.70;99.30
4425;DHT22;2225;53.568;13.266;2023-10-31T06:56:15;15.70;99.50
4425;DHT22;2225;53.568;13.266;2023-10-31T06:58:42;15.70;99.70
4425;DHT22;2225;53.568;13.266;2023-10-31T07:01:09;15.80;99.50
4425;DHT22;2225;53.568;13.266;2023-10-31T07:03:36;15.80;99.50
4425;DHT22;2225;53.568;13.266;2023-10-31T07:06:03;15.80;99.50
4425;DHT22;2225;53.568;13.266;2023-10-31T07:08:30;15.80;99.50
4425;DHT22;2225;53.568;13.266;2023-10-31T07:10:57;15.80;99.50
4425;DHT22;2225;53.568;13.266;2023-10-31T07:13:27;15.90;99.50
4425;DHT22;2225;53.568;13.266;2023-10-31T07:15:54;15.90;99.60
4425;DHT22;2225;53.568;13.266;2023-10-31T07:18:21;15.90;99.50
4425;DHT22;2225;53.568;13.266;2023-10-31T07:20:48;15.90;99.50
4425;DHT22;2225;53.568;13.266;2023-10-31T07:23:15;15.90;99.60
4425;DHT22;2225;53.568;13.266;2023-10-31T07:25:42;15.90;99.60
4425;DHT22;2225;53.568;13.266;2023-10-31T07:28:10;15.90;99.70
4425;DHT22;2225;53.568;13.266;2023-10-31T07:30:37;16.00;99.70
4425;DHT22;2225;53.568;13.266;2023-10-31T07:33:04;16.00;99.70
4425;DHT22;2225;53.568;13.266;2023-10-31T07:35:31;16.00;99.70
4425;DHT22;2225;53.568;13.266;2023-10-31T07:37:58;16.00;99.80
4425;DHT22;2225;53.568;13.266;2023-10-31T07:40:25;16.00;99.80
4425;DHT22;2225;53.568;13.266;2023-10-31T07:42:52;16.10;99.80
4425;DHT22;2225;53.568;13.266;2023-10-31T07:45:19;16.10;99.80
4425;DHT22;2225;53.568;13.266;2023-10-31T07:47:46;16.10;99.80
4425;DHT22;2225;53.568;13.266;2023-10-31T07:50:13;16.10;99.90
4425;DHT22;2225;53.568;13.266;2023-10-31T07:52:40;16.10;99.90
4425;DHT22;2225;53.568;13.266;2023-10-31T07:55:07;16.20;99.90
4425;DHT22;2225;53.568;13.266;2023-10-31T07:57:34;16.20;99.90
4425;DHT22;2225;53.568;13.266;2023-10-31T08:00:01;16.20;99.90
4425;DHT22;2225;53.568;13.266;2023-10-31T08:02:37;16.20;99.90
4425;DHT22;2225;53.568;13.266;2023-10-31T08:05:05;16.20;99.90
4425;DHT22;2225;53.568;13.266;2023-10-31T08:07:32;16.30;99.90
4425;DHT22;2225;53.568;13.266;2023-10-31T08:09:59;16.30;99.90
4425;DHT22;2225;53.568;13.266;2023-10-31T08:12:25;16.20;99.90
4425;DHT22;2225;53.568;13.266;2023-10-31T08:14:52;16.30;99.90
4425;DHT22;2225;53.568;13.266;2023-10-31T08:17:19;16.30;99.90
4425;DHT22;2225;53.568;13.266;2023-10-31T08:19:46;16.30;99.90
4425;DHT22;2225;53.568;13.266;2023-10-31T08:22:14;16.30;99.90
4425;DHT22;2225;53.568;13.266;2023-10-31T08:24:41;16.30;99.90
4425;DHT22;2225;53.568;13.266;2023-10-31T08:27:08;16.30;99.90
4425;DHT22;2225;53.568;13.266;2023-10-31T08:29:35;16.30;99.90
4425;DHT22;2225;53.568;13.266;2023-10-31T08:32:02;16.40;99.90
4425;DHT22;2225;53.568;13.266;2023-10-31T08:34:29;16.40;99.90
4425;DHT22;2225;53.568;13.266;2023-10-31T08:36:56;16.40;99.90
4425;DHT22;2225;53.568;13.266;2023-10-31T08:39:25;16.40;99.90
4425;DHT22;2225;53.568;13.266;2023-10-31T08:41:54;16.50;99.90
4425;DHT22;2225;53.568;13.266;2023-10-31T08:44:21;16.50;99.90
4425;DHT22;2225;53.568;13.266;2023-10-31T08:46:48;16.50;99.90
4425;DHT22;2225;53.568;13.266;2023-10-31T08:49:16;16.50;99.90
4425;DHT22;2225;53.568;13.266;2023-10-31T08:51:44;16.50;99.90
4425;DHT22;2225;53.568;13.266;2023-10-31T08:54:11;16.50;99.90
4425;DHT22;2225;53.568;13.266;2023-10-31T08:56:38;16.60;99.90
4425;DHT22;2225;53.568;13.266;2023-10-31T08:59:05;16.60;99.90
4425;DHT22;2225;53.568;13.266;2023-10-31T09:01:32;16.60;99.90
4425;DHT22;2225;53.568;13.266;2023-10-31T09:04:00;16.60;99.90
4425;DHT22;2225;53.568;13.266;2023-10-31T09:06:27;16.60;99.90
4425;DHT22;2225;53.568;13.266;2023-10-31T09:08:54;16.70;99.90
4425;DHT22;2225;53.568;13.266;2023-10-31T09:11:21;16.70;99.90
4425;DHT22;2225;53.568;13.266;2023-10-31T09:13:48;16.60;99.90
4425;DHT22;2225;53.568;13.266;2023-10-31T09:16:15;16.60;99.90
4425;DHT22;2225;53.568;13.266;2023-10-31T09:18:42;16.60;99.90
4425;DHT22;2225;53.568;13.266;2023-10-31T09:21:10;16.60;99.90
4425;DHT22;2225;53.568;13.266;2023-10-31T09:23:37;16.60;99.90
4425;DHT22;2225;53.568;13.266;2023-10-31T09:26:04;16.60;99.90
4425;DHT22;2225;53.568;13.266;2023-10-31T09:28:31;16.50;99.70
4425;DHT22;2225;53.568;13.266;2023-10-31T09:30:58;16.50;99.80
4425;DHT22;2225;53.568;13.266;2023-10-31T09:33:27;16.50;99.40
4425;DHT22;2225;53.568;13.266;2023-10-31T09:35:54;16.50;99.40
4425;DHT22;2225;53.568;13.266;2023-10-31T09:38:21;16.50;99.10
4425;DHT22;2225;53.568;13.266;2023-10-31T09:40:48;16.40;99.10
4425;DHT22;2225;53.568;13.266;2023-10-31T09:43:17;16.40;99.20
4425;DHT22;2225;53.568;13.266;2023-10-31T09:45:43;16.40;99.20
4425;DHT22;2225;53.568;13.266;2023-10-31T09:48:12;16.40;98.80
4425;DHT22;2225;53.568;13.266;2023-10-31T09:50:39;16.40;98.80
4425;DHT22;2225;53.568;13.266;2023-10-31T09:53:08;16.30;98.80
4425;DHT22;2225;53.568;13.266;2023-10-31T09:55:37;16.40;98.80
4425;DHT22;2225;53.568;13.266;2023-10-31T09:58:04;16.30;98.50
4425;DHT22;2225;53.568;13.266;2023-10-31T10:00:31;16.20;98.50
4425;DHT22;2225;53.568;13.266;2023-10-31T10:02:59;16.30;98.50
4425;DHT22;2225;53.568;13.266;2023-10-31T10:05:26;16.30;98.30
4425;DHT22;2225;53.568;13.266;2023-10-31T10:07:57;16.20;98.30
4425;DHT22;2225;53.568;13.266;2023-10-31T10:10:24;16.20;98.40
4425;DHT22;2225;53.568;13.266;2023-10-31T10:12:52;16.20;98.40
4425;DHT22;2225;53.568;13.266;2023-10-31T10:15:19;16.20;98.40
4425;DHT22;2225;53.568;13.266;2023-10-31T10:17:53;16.20;98.20
4425;DHT22;2225;53.568;13.266;2023-10-31T10:20:20;16.20;98.20
4425;DHT22;2225;53.568;13.266;2023-10-31T10:22:47;16.20;98.20
4425;DHT22;2225;53.568;13.266;2023-10-31T10:25:16;16.10;98.00
4425;DHT22;2225;53.568;13.266;2023-10-31T10:27:45;16.10;98.10
4425;DHT22;2225;53.568;13.266;2023-10-31T10:30:14;16.10;98.10
4425;DHT22;2225;53.568;13.266;2023-10-31T10:32:41;16.10;98.00
4425;DHT22;2225;53.568;13.266;2023-10-31T10:35:08;16.10;98.00
4425;DHT22;2225;53.568;13.266;2023-10-31T10:37:37;16.10;97.80
4425;DHT22;2225;53.568;13.266;2023-10-31T10:40:06;16.00;97.80
4425;DHT22;2225;53.568;13.266;2023-10-31T10:42:47;15.90;97.70
4425;DHT22;2225;53.568;13.266;2023-10-31T10:45:15;15.90;97.90
4425;DHT22;2225;53.568;13.266;2023-10-31T10:47:49;15.90;97.80
4425;DHT22;2225;53.568;13.266;2023-10-31T10:50:19;15.90;97.70
4425;DHT22;2225;53.568;13.266;2023-10-31T10:53:22;15.80;97.60
4425;DHT22;2225;53.568;13.266;2023-10-31T10:56:16;15.80;97.50
4425;DHT22;2225;53.568;13.266;2023-10-31T10:59:11;15.80;97.50
4425;DHT22;2225;53.568;13.266;2023-10-31T11:01:42;15.80;97.60
4425;DHT22;2225;53.568;13.266;2023-10-31T11:04:10;15.80;97.50
4425;DHT22;2225;53.568;13.266;2023-10-31T11:06:38;15.80;97.40
4425;DHT22;2225;53.568;13.266;2023-10-31T11:09:06;15.80;97.40
4425;DHT22;2225;53.568;13.266;2023-10-31T11:11:33;15.80;97.50
4425;DHT22;2225;53.568;13.266;2023-10-31T11:14:01;15.80;97.50
4425;DHT22;2225;53.568;13.266;2023-10-31T11:16:52;15.80;97.30
4425;DHT22;2225;53.568;13.266;2023-10-31T11:19:20;15.80;97.10
4425;DHT22;2225;53.568;13.266;2023-10-31T11:22:00;15.80;97.10
4425;DHT22;2225;53.568;13.266;2023-10-31T11:24:31;15.80;97.00
4425;DHT22;2225;53.568;13.266;2023-10-31T11:27:00;15.80;96.80
4425;DHT22;2225;53.568;13.266;2023-10-31T11:29:28;15.80;96.90
4425;DHT22;2225;53.568;13.266;2023-10-31T11:31:57;15.80;96.70
4425;DHT22;2225;53.568;13.266;2023-10-31T11:34:29;15.90;96.70
4425;DHT22;2225;53.568;13.266;2023-10-31T11:37:22;15.90;96.60
4425;DHT22;2225;53.568;13.266;2023-10-31T11:40:20;15.90;96.10
4425;DHT22;2225;53.568;13.266;2023-10-31T11:42:57;15.90;96.20
4425;DHT22;2225;53.568;13.266;2023-10-31T11:45:36;15.90;96.00
4425;DHT22;2225;53.568;13.266;2023-10-31T11:48:08;16.00;96.20
4425;DHT22;2225;53.568;13.266;2023-10-31T11:50:38;16.00;96.00
4425;DHT22;2225;53.568;13.266;2023-10-31T11:53:12;16.00;96.00
4425;DHT22;2225;53.568;13.266;2023-10-31T11:55:46;16.00;95.60
4425;DHT22;2225;53.568;13.266;2023-10-31T11:58:23;16.00;95.60
4425;DHT22;2225;53.568;13.266;2023-10-31T12:01:00;16.00;95.60
4425;DHT22;2225;53.568;13.266;2023-10-31T12:03:45;16.00;95.30
4425;DHT22;2225;53.568;13.266;2023-10-31T12:06:15;16.00;95.40
4425;DHT22;2225;53.568;13.266;2023-10-31T12:08:43;16.00;95.30
4425;DHT22;2225;53.568;13.266;2023-10-31T12:11:22;15.90;95.30
4425;DHT22;2225;53.568;13.266;2023-10-31T12:13:57;15.90;95.10
4425;DHT22;2225;53.568;13.266;2023-10-31T12:16:30;15.90;95.40
4425;DHT22;2225;53.568;13.266;2023-10-31T12:18:59;15.90;95.20
4425;DHT22;2225;53.568;13.266;2023-10-31T12:21:43;15.90;95.30
4425;DHT22;2225;53.568;13.266;2023-10-31T12:24:16;15.90;95.20
4425;DHT22;2225;53.568;13.266;2023-10-31T12:26:44;15.90;95.40
4425;DHT22;2225;53.568;13.266;2023-10-31T12:29:16;15.90;95.20
4425;DHT22;2225;53.568;13.266;2023-10-31T12:31:46;15.90;95.30
4425;DHT22;2225;53.568;13.266;2023-10-31T12:34:20;16.00;94.90
4425;DHT22;2225;53.568;13.266;2023-10-31T12:36:50;15.90;94.90
4425;DHT22;2225;53.568;13.266;2023-10-31T12:39:20;15.90;95.10
4425;DHT22;2225;53.568;13.266;2023-10-31T12:41:49;15.90;94.90
4425;DHT22;2225;53.568;13.266;2023-10-31T12:44:22;15.90;95.00
4425;DHT22;2225;53.568;13.266;2023-10-31T12:46:51;15.90;95.20
4425;DHT22;2225;53.568;13.266;2023-10-31T12:49:20;15.90;95.30
4425;DHT22;2225;53.568;13.266;2023-10-31T12:51:58;15.90;95.50
4425;DHT22;2225;53.568;13.266;2023-10-31T12:54:33;15.90;95.70
4425;DHT22;2225;53.568;13.266;2023-10-31T12:59:36;15.90;96.00
4425;DHT22;2225;53.568;13.266;2023-10-31T13:02:05;15.80;96.20
4425;DHT22;2225;53.568;13.266;2023-10-31T13:04:33;15.70;96.40
4425;DHT22;2225;53.568;13.266;2023-10-31T13:07:06;15.70;96.60
4425;DHT22;2225;53.568;13.266;2023-10-31T13:09:36;15.60;96.80
4425;DHT22;2225;53.568;13.266;2023-10-31T13:12:06;15.60;96.90
4425;DHT22;2225;53.568;13.266;2023-10-31T13:14:34;15.60;97.00
4425;DHT22;2225;53.568;13.266;2023-10-31T13:17:03;15.60;97.10
4425;DHT22;2225;53.568;13.266;2023-10-31T13:19:31;15.50;97.10
4425;DHT22;2225;53.568;13.266;2023-10-31T13:21:58;15.50;97.10
4425;DHT22;2225;53.568;13.266;2023-10-31T13:24:24;15.50;97.30
4425;DHT22;2225;53.568;13.266;2023-10-31T13:26:52;15.40;97.40
4425;DHT22;2225;53.568;13.266;2023-10-31T13:29:22;15.40;97.50
4425;DHT22;2225;53.568;13.266;2023-10-31T13:31:52;15.40;97.60
4425;DHT22;2225;53.568;13.266;2023-10-31T13:34:20;15.30;97.70
4425;DHT22;2225;53.568;13.266;2023-10-31T13:36:47;15.30;97.70
4425;DHT22;2225;53.568;13.266;2023-10-31T13:39:18;15.20;97.80
4425;DHT22;2225;53.568;13.266;2023-10-31T13:41:45;15.20;97.90
4425;DHT22;2225;53.568;13.266;2023-10-31T13:44:13;15.20;98.10
4425;DHT22;2225;53.568;13.266;2023-10-31T13:46:40;15.10;98.30
4425;DHT22;2225;53.568;13.266;2023-10-31T13:49:07;15.10;98.40
4425;DHT22;2225;53.568;13.266;2023-10-31T13:51:34;15.00;98.50
4425;DHT22;2225;53.568;13.266;2023-10-31T13:54:02;15.00;98.60
4425;DHT22;2225;53.568;13.266;2023-10-31T13:56:29;15.00;98.80
4425;DHT22;2225;53.568;13.266;2023-10-31T13:58:58;14.90;98.90
4425;DHT22;2225;53.568;13.266;2023-10-31T14:01:25;14.90;98.90
4425;DHT22;2225;53.568;13.266;2023-10-31T14:03:53;15.00;99.00
4425;DHT22;2225;53.568;13.266;2023-10-31T14:06:20;14.90;99.10
4425;DHT22;2225;53.568;13.266;2023-10-31T14:08:47;14.90;99.20
4425;DHT22;2225;53.568;13.266;2023-10-31T14:11:14;14.80;99.40
4425;DHT22;2225;53.568;13.266;2023-10-31T14:13:42;14.80;99.30
4425;DHT22;2225;53.568;13.266;2023-10-31T14:16:11;14.70;99.20
4425;DHT22;2225;53.568;13.266;2023-10-31T14:18:38;14.70;99.10
4425;DHT22;2225;53.568;13.266;2023-10-31T14:21:05;14.70;99.00
4425;DHT22;2225;53.568;13.266;2023-10-31T14:23:32;14.60;98.60
4425;DHT22;2225;53.568;13.266;2023-10-31T14:26:00;14.50;98.50
4425;DHT22;2225;53.568;13.266;2023-10-31T14:28:27;14.50;98.70
4425;DHT22;2225;53.568;13.266;2023-10-31T14:30:54;14.40;98.90
4425;DHT22;2225;53.568;13.266;2023-10-31T14:33:20;14.40;98.70
4425;DHT22;2225;53.568;13.266;2023-10-31T14:35:48;14.40;98.50
4425;DHT22;2225;53.568;13.266;2023-10-31T14:38:15;14.30;98.00
4425;DHT22;2225;53.568;13.266;2023-10-31T14:40:42;14.20;97.90
4425;DHT22;2225;53.568;13.266;2023-10-31T14:43:09;14.20;98.00
4425;DHT22;2225;53.568;13.266;2023-10-31T14:45:36;14.10;98.20
4425;DHT22;2225;53.568;13.266;2023-10-31T14:48:03;14.10;98.40
4425;DHT22;2225;53.568;13.266;2023-10-31T14:50:30;14.10;98.40
4425;DHT22;2225;53.568;13.266;2023-10-31T14:52:57;14.10;98.30
4425;DHT22;2225;53.568;13.266;2023-10-31T14:55:24;14.10;98.40
4425;DHT22;2225;53.568;13.266;2023-10-31T14:57:51;14.10;98.30
4425;DHT22;2225;53.568;13.266;2023-10-31T15:00:18;14.10;98.30
4425;DHT22;2225;53.568;13.266;2023-10-31T15:02:45;14.10;98.20
4425;DHT22;2225;53.568;13.266;2023-10-31T15:05:12;14.10;98.10
4425;DHT22;2225;53.568;13.266;2023-10-31T15:07:40;14.10;98.10
4425;DHT22;2225;53.568;13.266;2023-10-31T15:10:08;14.10;98.10
4425;DHT22;2225;53.568;13.266;2023-10-31T15:12:35;14.00;98.00
4425;DHT22;2225;53.568;13.266;2023-10-31T15:15:02;14.00;97.90
4425;DHT22;2225;53.568;13.266;2023-10-31T15:17:29;14.00;97.70
4425;DHT22;2225;53.568;13.266;2023-10-31T15:19:56;13.90;97.60
4425;DHT22;2225;53.568;13.266;2023-10-31T15:22:23;13.90;97.60
4425;DHT22;2225;53.568;13.266;2023-10-31T15:24:50;13.90;97.40
4425;DHT22;2225;53.568;13.266;2023-10-31T15:27:17;13.90;97.40
4425;DHT22;2225;53.568;13.266;2023-10-31T15:29:44;13.90;97.40
4425;DHT22;2225;53.568;13.266;2023-10-31T15:32:11;13.90;97.30
4425;DHT22;2225;53.568;13.266;2023-10-31T15:34:39;13.90;97.30
4425;DHT22;2225;53.568;13.266;2023-10-31T15:37:09;13.80;97.40
4425;DHT22;2225;53.568;13.266;2023-10-31T15:39:38;13.80;97.40
4425;DHT22;2225;53.568;13.266;2023-10-31T15:42:06;13.80;97.50
4425;DHT22;2225;53.568;13.266;2023-10-31T15:44:35;13.80;97.50
4425;DHT22;2225;53.568;13.266;2023-10-31T15:47:03;13.80;97.50
4425;DHT22;2225;53.568;13.266;2023-10-31T15:49:31;13.80;97.60
4425;DHT22;2225;53.568;13.266;2023-10-31T15:51:58;13.80;97.70
4425;DHT22;2225;53.568;13.266;2023-10-31T15:54:25;13.80;97.60